Time;durP1;ratioP1;P1;durP2;ratioP2;P2;SDS_P1;SDS_P2;PMS_P1;PMS_P2;Temp;Humidity;BMP_temperature;BMP_pressure;BME280_temperature;BME280_humidity;BME280_pressure;Samples;Min_cycle;Max_cycle;Signal;HPM_P1;HPM_P2
2022/03/25 00:00:10;;;;;;;22.85;11.20;;;;;;;2.06;89.75;99538.06;1856371;77;20855;-71
2022/03/25 00:02:40;;;;;;;23.60;11.00;;;;;;;2.14;89.98;99536.73;1856425;77;21379;-71
2022/03/25 00:05:09;;;;;;;28.55;11.68;;;;;;;2.17;89.42;99533.48;1856378;77;21427;-72
2022/03/25 00:07:36;;;;;;;25.90;11.30;;;;;;;2.18;89.61;99541.94;1856525;77;20967;-70
2022/03/25 00:10:06;;;;;;;22.45;11.18;;;;;;;2.19;89.58;99534.88;1856205;77;20953;-70
2022/03/25 00:12:34;;;;;;;18.52;9.83;;;;;;;2.22;89.47;99536.79;1856442;77;20910;-68
2022/03/25 00:15:01;;;;;;;15.35;9.63;;;;;;;2.25;89.31;99537.62;1830840;77;20969;-70
2022/03/25 00:17:29;;;;;;;20.08;8.35;;;;;;;2.24;89.04;99535.96;1830044;77;20926;-71
2022/03/25 00:19:56;;;;;;;15.20;8.63;;;;;;;2.26;89.20;99537.88;1856660;77;20914;-69
2022/03/25 00:22:28;;;;;;;12.28;8.13;;;;;;;2.31;89.23;99536.02;1856623;77;21143;-69
2022/03/25 00:24:55;;;;;;;14.30;8.48;;;;;;;2.37;89.11;99536.05;1856569;77;20910;-68
2022/03/25 00:27:23;;;;;;;12.20;7.25;;;;;;;2.39;88.90;99534.69;1856948;77;20910;-72
2022/03/25 00:29:50;;;;;;;9.78;7.25;;;;;;;2.32;88.66;99534.09;1856483;77;20982;-68
2022/03/25 00:32:21;;;;;;;13.03;7.97;;;;;;;2.31;89.07;99544.18;1856710;77;21431;-69
2022/03/25 00:34:49;;;;;;;11.38;8.00;;;;;;;2.36;89.27;99539.30;1856511;77;21553;-71
2022/03/25 00:37:16;;;;;;;13.83;8.13;;;;;;;2.42;89.29;99543.67;1856803;77;20870;-70
2022/03/25 00:39:44;;;;;;;10.93;7.85;;;;;;;2.38;88.66;99544.47;1856041;77;21458;-70
2022/03/25 00:42:16;;;;;;;11.53;8.13;;;;;;;2.29;88.53;99550.41;1856222;77;21028;-70
2022/03/25 00:44:47;;;;;;;15.78;8.40;;;;;;;2.26;88.79;99540.60;1856561;77;20966;-70
2022/03/25 00:47:14;;;;;;;11.50;7.37;;;;;;;2.31;89.26;99546.07;1856439;77;21622;-69
2022/03/25 00:49:42;;;;;;;11.03;7.72;;;;;;;2.35;89.04;99549.91;1856418;77;20961;-70
2022/03/25 00:52:10;;;;;;;10.95;7.15;;;;;;;2.36;88.94;99541.19;1856423;77;21427;-70
2022/03/25 00:54:37;;;;;;;12.05;7.15;;;;;;;2.37;88.86;99540.92;1856104;77;21505;-69
2022/03/25 00:57:10;;;;;;;12.63;7.95;;;;;;;2.31;88.44;99537.91;1856518;77;20835;-70
2022/03/25 00:59:37;;;;;;;12.75;7.45;;;;;;;2.26;88.61;99541.43;1856281;77;21794;-71
2022/03/25 01:02:06;;;;;;;8.40;6.22;;;;;;;2.29;88.83;99544.98;1856462;77;21395;-69
2022/03/25 01:04:34;;;;;;;8.75;6.58;;;;;;;2.33;88.86;99553.96;1856219;77;21017;-71
2022/03/25 01:07:01;;;;;;;8.80;6.53;;;;;;;2.36;88.93;99558.34;1856699;77;20986;-72
2022/03/25 01:09:31;;;;;;;7.92;6.42;;;;;;;2.43;88.96;99571.16;1856356;77;21028;-72
2022/03/25 01:12:00;;;;;;;7.17;5.33;;;;;;;2.50;89.07;99570.92;1856590;77;20893;-72
2022/03/25 01:14:27;;;;;;;6.62;5.25;;;;;;;2.57;88.63;99568.49;1856344;77;20906;-71
2022/03/25 01:16:54;;;;;;;7.55;5.60;;;;;;;2.58;88.51;99572.88;1856596;77;20945;-69
2022/03/25 01:19:25;;;;;;;6.80;5.60;;;;;;;2.61;88.32;99577.78;1830184;77;20982;-68
2022/03/25 01:21:58;;;;;;;6.85;5.62;;;;;;;2.65;88.24;99578.87;1856165;77;21013;-71
2022/03/25 01:24:25;;;;;;;7.92;5.75;;;;;;;2.70;88.23;99583.50;1856657;77;21111;-70
2022/03/25 01:26:53;;;;;;;10.55;6.90;;;;;;;2.77;88.13;99592.25;1856165;77;20985;-70
2022/03/25 01:29:22;;;;;;;7.65;6.12;;;;;;;2.81;87.94;99590.65;1856623;77;20862;-68
2022/03/25 01:31:48;;;;;;;9.38;6.67;;;;;;;2.85;87.63;99594.45;1856607;77;20839;-70
2022/03/25 01:34:18;;;;;;;9.30;6.92;;;;;;;2.89;87.39;99594.75;1856583;77;20910;-71
2022/03/25 01:36:46;;;;;;;8.23;6.62;;;;;;;2.91;87.07;99596.13;1856748;77;21704;-72
2022/03/25 01:39:14;;;;;;;10.20;8.08;;;;;;;2.94;86.89;99605.66;1855809;76;20981;-72
2022/03/25 01:41:41;;;;;;;12.85;9.33;;;;;;;2.97;86.68;99606.48;1856425;77;20897;-70
2022/03/25 01:44:11;;;;;;;14.00;9.88;;;;;;;3.01;86.54;99608.12;1856282;77;20875;-68
2022/03/25 01:46:39;;;;;;;15.20;10.38;;;;;;;3.03;86.49;99616.85;1856521;77;20866;-71
2022/03/25 01:49:08;;;;;;;17.70;11.25;;;;;;;3.07;86.38;99625.31;1856447;77;20942;-72
2022/03/25 01:51:39;;;;;;;15.60;10.80;;;;;;;3.10;86.21;99625.59;1856315;77;20956;-70
2022/03/25 01:54:27;;;;;;;20.60;11.73;;;;;;;3.12;86.01;99631.57;1856334;77;20951;-70
2022/03/25 01:57:00;;;;;;;18.45;11.80;;;;;;;3.11;85.71;99634.03;1856818;77;20878;-70
2022/03/25 01:59:27;;;;;;;13.70;9.20;;;;;;;3.12;85.53;99640.30;1856657;77;20930;-68
2022/03/25 02:01:56;;;;;;;24.85;13.32;;;;;;;3.12;85.44;99645.19;1842372;77;21117;-70
2022/03/25 02:04:24;;;;;;;28.27;16.95;;;;;;;3.12;85.27;99649.27;1856426;77;21501;-72
2022/03/25 02:06:51;;;;;;;31.65;20.40;;;;;;;3.13;85.28;99655.02;1856658;77;20870;-72
2022/03/25 02:09:18;;;;;;;29.80;19.12;;;;;;;3.16;85.21;99655.83;1854519;77;20981;-69
2022/03/25 02:11:48;;;;;;;27.02;17.98;;;;;;;3.18;85.09;99658.82;1852733;77;21439;-69
2022/03/25 02:14:16;;;;;;;27.73;17.73;;;;;;;3.18;84.89;99654.73;1852593;77;21237;-70
2022/03/25 02:16:46;;;;;;;25.02;17.92;;;;;;;3.17;84.75;99660.75;1852098;77;20926;-71
2022/03/25 02:19:18;;;;;;;30.75;19.32;;;;;;;3.15;84.61;99669.19;1852232;77;21446;-69
2022/03/25 02:21:48;;;;;;;26.52;16.75;;;;;;;3.15;84.52;99676.00;1852604;77;20921;-72
2022/03/25 02:24:16;;;;;;;30.32;18.42;;;;;;;3.12;84.33;99679.22;1852564;77;21529;-69
2022/03/25 02:26:47;;;;;;;21.62;13.70;;;;;;;3.12;84.28;99683.31;1852560;77;21782;-72
2022/03/25 02:29:16;;;;;;;21.37;13.78;;;;;;;3.11;84.28;99696.66;1852206;77;20874;-71
2022/03/25 02:31:44;;;;;;;27.50;14.45;;;;;;;3.12;84.28;99690.12;1852720;77;20989;-71
2022/03/25 02:34:11;;;;;;;21.35;13.93;;;;;;;3.12;84.11;99690.12;1852293;77;20938;-71
2022/03/25 02:36:43;;;;;;;17.17;12.10;;;;;;;3.12;84.01;99693.41;1817663;77;20922;-67
2022/03/25 02:39:12;;;;;;;21.65;13.40;;;;;;;3.10;83.80;99698.29;1852809;77;21056;-71
2022/03/25 02:41:39;;;;;;;25.17;15.10;;;;;;;3.07;83.66;99702.91;1852368;77;20899;-69
2022/03/25 02:44:07;;;;;;;25.68;15.60;;;;;;;3.02;83.55;99705.08;1852713;77;21442;-71
2022/03/25 02:46:36;;;;;;;26.23;16.93;;;;;;;2.96;83.36;99709.66;1852493;77;20938;-70
2022/03/25 02:49:07;;;;;;;33.00;19.92;;;;;;;2.90;83.36;99706.08;1852177;77;21513;-68
2022/03/25 02:51:35;;;;;;;33.75;20.80;;;;;;;2.86;83.52;99711.80;1852121;77;21474;-67
2022/03/25 02:54:03;;;;;;;34.98;21.35;;;;;;;2.86;83.63;99717.77;1852252;77;20957;-71
2022/03/25 02:56:30;;;;;;;39.70;24.47;;;;;;;2.85;83.70;99725.67;1852186;77;20906;-72
2022/03/25 02:59:01;;;;;;;34.38;21.87;;;;;;;2.86;83.87;99731.38;1852668;77;20946;-72
2022/03/25 03:01:30;;;;;;;36.13;24.10;;;;;;;2.86;84.10;99731.38;1849655;77;21080;-69
2022/03/25 03:03:58;;;;;;;36.33;22.45;;;;;;;2.87;84.09;99731.11;1852212;77;21061;-72
2022/03/25 03:06:25;;;;;;;40.52;23.45;;;;;;;2.86;84.03;99744.45;1852800;77;21473;-70
2022/03/25 03:08:53;;;;;;;37.33;23.32;;;;;;;2.85;83.94;99740.64;1852388;77;20989;-70
2022/03/25 03:11:24;;;;;;;38.40;24.98;;;;;;;2.80;83.92;99740.88;1852133;77;21005;-72
2022/03/25 03:13:53;;;;;;;34.58;22.13;;;;;;;2.77;83.92;99743.30;1852380;77;20906;-68
2022/03/25 03:16:20;;;;;;;34.53;22.95;;;;;;;2.74;83.92;99750.63;1852454;77;21116;-69
2022/03/25 03:18:47;;;;;;;43.05;24.80;;;;;;;2.71;84.07;99753.88;1795454;77;21454;-70
2022/03/25 03:21:17;;;;;;;47.55;25.37;;;;;;;2.70;84.27;99755.77;1852160;77;20957;-71
2022/03/25 03:23:45;;;;;;;42.80;24.92;;;;;;;2.73;84.53;99757.17;1851785;77;21001;-71
2022/03/25 03:26:15;;;;;;;39.67;25.02;;;;;;;2.75;84.61;99756.34;1852616;77;20906;-71
2022/03/25 03:28:44;;;;;;;43.02;25.05;;;;;;;2.77;84.81;99759.09;1852593;77;20911;-72
2022/03/25 03:31:11;;;;;;;44.65;27.25;;;;;;;2.80;84.89;99759.93;1852687;77;20923;-70
2022/03/25 03:33:39;;;;;;;46.00;27.55;;;;;;;2.84;84.99;99759.40;1852702;77;20901;-71
2022/03/25 03:36:11;;;;;;;46.40;27.65;;;;;;;2.84;85.04;99761.59;1852557;77;20909;-70
2022/03/25 03:38:40;;;;;;;48.05;27.45;;;;;;;2.88;85.19;99772.78;1853230;77;21029;-71
2022/03/25 03:41:08;;;;;;;47.70;27.75;;;;;;;2.92;85.31;99773.88;1852924;77;21055;-68
2022/03/25 03:43:37;;;;;;;42.73;27.80;;;;;;;2.95;85.40;99776.62;1852513;77;21427;-71
2022/03/25 03:46:03;;;;;;;44.55;26.37;;;;;;;2.99;85.56;99778.55;1852722;77;21080;-72
2022/03/25 03:48:32;;;;;;;41.05;28.47;;;;;;;3.04;85.68;99778.59;1852887;77;20874;-71
2022/03/25 03:50:59;;;;;;;45.35;27.52;;;;;;;3.08;85.64;99781.61;1852172;77;21095;-70
2022/03/25 03:53:26;;;;;;;38.90;25.65;;;;;;;3.12;85.63;99792.80;1852668;77;21185;-70
2022/03/25 03:55:55;;;;;;;45.58;26.93;;;;;;;3.14;85.51;99798.25;1852603;77;20984;-70
2022/03/25 03:58:45;;;;;;;47.40;30.05;;;;;;;3.16;85.51;99808.34;1852850;77;20858;-71
2022/03/25 04:01:12;;;;;;;44.53;27.83;;;;;;;3.20;85.51;99813.26;1853334;77;20922;-71
2022/03/25 04:03:39;;;;;;;47.13;28.70;;;;;;;3.21;85.31;99808.91;1852732;77;20958;-70
2022/03/25 04:06:06;;;;;;;42.40;27.22;;;;;;;3.21;85.20;99814.35;1852985;77;20975;-70
2022/03/25 04:08:35;;;;;;;44.33;28.25;;;;;;;3.23;85.03;99819.00;1852600;77;20906;-70
2022/03/25 04:11:03;;;;;;;43.13;25.62;;;;;;;3.26;84.80;99825.81;1822178;77;21388;-72
2022/03/25 04:13:31;;;;;;;41.58;25.72;;;;;;;3.28;84.61;99829.09;1847672;77;20945;-71
2022/03/25 04:16:00;;;;;;;43.17;26.52;;;;;;;3.28;84.37;99824.48;1847569;77;21009;-69
2022/03/25 04:18:27;;;;;;;41.73;26.25;;;;;;;3.30;84.09;99833.75;1821604;77;21972;-69
2022/03/25 04:20:58;;;;;;;44.70;27.13;;;;;;;3.31;83.91;99841.39;1847455;77;20898;-71
2022/03/25 04:23:25;;;;;;;44.60;28.17;;;;;;;3.30;83.74;99839.20;1847863;77;20972;-68
2022/03/25 04:25:51;;;;;;;42.75;26.50;;;;;;;3.32;83.55;99845.73;1848305;77;20942;-68
2022/03/25 04:28:21;;;;;;;41.90;25.62;;;;;;;3.29;83.34;99848.46;1847612;77;21088;-68
2022/03/25 04:30:49;;;;;;;41.40;25.75;;;;;;;3.29;83.25;99858.80;1847819;77;21502;-71
2022/03/25 04:33:16;;;;;;;41.68;26.23;;;;;;;3.29;83.08;99862.88;1847637;76;20902;-69
2022/03/25 04:35:46;;;;;;;41.50;27.58;;;;;;;3.31;83.06;99870.79;1847908;77;21462;-70
2022/03/25 04:38:18;;;;;;;43.80;25.50;;;;;;;3.32;83.01;99864.28;1847961;77;21608;-70
2022/03/25 04:40:43;;;;;;;39.33;24.40;;;;;;;3.37;82.94;99868.92;1847666;77;20941;-70
2022/03/25 04:43:09;;;;;;;42.15;25.95;;;;;;;3.39;82.83;99863.52;1848017;77;21830;-72
2022/03/25 04:45:36;;;;;;;40.05;25.23;;;;;;;3.44;82.66;99872.78;1821888;77;21029;-72
2022/03/25 04:48:07;;;;;;;39.15;25.75;;;;;;;3.48;82.41;99883.44;1847797;77;21000;-69
2022/03/25 04:50:34;;;;;;;44.03;25.62;;;;;;;3.51;82.05;99882.91;1847331;77;20978;-72
2022/03/25 04:53:05;;;;;;;35.75;22.87;;;;;;;3.52;81.67;99891.35;1847913;77;20962;-72
2022/03/25 04:55:33;;;;;;;42.93;25.15;;;;;;;3.53;81.32;99888.36;1848084;77;21176;-70
2022/03/25 04:58:00;;;;;;;39.23;24.75;;;;;;;3.56;81.02;99895.73;1848110;77;20914;-73
2022/03/25 05:00:27;;;;;;;38.98;23.55;;;;;;;3.59;80.72;99897.40;1848074;77;20961;-69
2022/03/25 05:02:53;;;;;;;37.55;24.27;;;;;;;3.61;80.48;99903.94;1821529;77;20986;-69
2022/03/25 05:05:21;;;;;;;35.92;21.87;;;;;;;3.65;80.24;99903.14;1847819;77;21526;-68
2022/03/25 05:07:53;;;;;;;40.35;24.60;;;;;;;3.67;79.90;99904.24;1847586;77;21070;-72
2022/03/25 05:10:20;;;;;;;38.40;23.65;;;;;;;3.71;79.57;99908.09;1849229;77;20958;-70
2022/03/25 05:12:50;;;;;;;38.53;23.32;;;;;;;3.74;79.12;99916.27;1852537;77;20894;-67
2022/03/25 05:15:18;;;;;;;39.40;23.57;;;;;;;3.75;78.90;99913.28;1852430;77;20913;-72
2022/03/25 05:17:51;;;;;;;31.73;21.45;;;;;;;3.79;78.67;99919.02;1852557;77;21005;-72
2022/03/25 05:20:19;;;;;;;37.42;22.93;;;;;;;3.82;78.46;99925.30;1852862;77;21796;-67
2022/03/25 05:22:50;;;;;;;33.48;21.37;;;;;;;3.84;78.18;99924.50;1852588;77;20893;-71
2022/03/25 05:25:18;;;;;;;32.98;20.68;;;;;;;3.89;77.97;99933.25;1852618;77;20994;-72
2022/03/25 05:27:52;;;;;;;30.75;18.23;;;;;;;3.92;77.54;99938.73;1852341;77;20973;-72
2022/03/25 05:30:24;;;;;;;19.23;13.17;;;;;;;3.94;77.11;99938.72;1853188;77;20906;-69
2022/03/25 05:32:54;;;;;;;23.98;16.37;;;;;;;4.01;76.96;99943.41;1852300;77;21573;-68
2022/03/25 05:35:22;;;;;;;26.73;16.00;;;;;;;4.08;76.40;99951.88;1852559;77;21398;-73
2022/03/25 05:37:52;;;;;;;22.52;15.03;;;;;;;4.10;75.49;99955.16;1850173;77;20870;-70
2022/03/25 05:40:21;;;;;;;26.23;16.23;;;;;;;4.07;75.13;99958.43;1852566;77;20874;-70
2022/03/25 05:42:50;;;;;;;25.85;15.08;;;;;;;4.11;74.76;99958.19;1852976;77;20831;-69
2022/03/25 05:45:19;;;;;;;24.27;14.68;;;;;;;4.14;74.47;99964.47;1852259;77;21138;-71
2022/03/25 05:47:49;;;;;;;26.40;14.70;;;;;;;4.17;74.21;99962.57;1852294;77;21017;-73
2022/03/25 05:50:16;;;;;;;18.48;12.50;;;;;;;4.20;73.79;99976.20;1852351;77;20956;-72
2022/03/25 05:52:44;;;;;;;23.32;13.22;;;;;;;4.22;73.49;99978.13;1852629;77;21466;-71
2022/03/25 05:55:16;;;;;;;18.12;12.18;;;;;;;4.23;72.91;99990.70;1852202;76;21519;-73
2022/03/25 05:57:43;;;;;;;20.32;11.55;;;;;;;4.20;72.18;99994.77;1852831;77;21136;-69
2022/03/25 06:00:28;;;;;;;;;;;;;;;;;;;;;
2022/03/25 06:02:44;;;;;;;19.07;10.98;;;;;;;4.21;71.41;99995.59;1842867;77;20963;-71
2022/03/25 06:05:12;;;;;;;19.82;12.60;;;;;;;4.25;71.34;100004.88;1852672;77;20902;-70
2022/03/25 06:07:41;;;;;;;19.15;11.85;;;;;;;4.29;71.00;100006.53;1852563;77;20982;-72
2022/03/25 06:10:09;;;;;;;20.97;12.33;;;;;;;4.28;70.73;100009.00;1853250;77;21848;-72
2022/03/25 06:12:37;;;;;;;20.37;11.73;;;;;;;4.24;70.54;100023.17;1856455;77;20895;-70
2022/03/25 06:15:06;;;;;;;18.32;11.40;;;;;;;4.23;70.67;100016.06;1856352;77;20970;-72
2022/03/25 06:17:42;;;;;;;20.82;12.07;;;;;;;4.29;70.88;100019.64;1855918;77;20997;-70
2022/03/25 06:20:15;;;;;;;18.25;11.57;;;;;;;4.37;70.77;100016.40;1856400;77;20934;-71
2022/03/25 06:22:44;;;;;;;;;;;;;;;4.46;70.32;100017.25;1859353;77;20898;-69
2022/03/25 06:25:13;;;;;;;16.67;10.98;;;;;;;4.54;70.13;100020.83;1855346;76;20084;-72
2022/03/25 06:27:54;;;;;;;20.65;12.23;;;;;;;4.61;69.91;100024.14;1856541;77;20862;-70
2022/03/25 06:30:24;;;;;;;22.62;11.28;;;;;;;4.67;69.74;100021.42;1856661;77;21017;-73
2022/03/25 06:32:54;;;;;;;18.15;11.80;;;;;;;4.74;69.48;100024.73;1855103;77;20973;-73
2022/03/25 06:35:25;;;;;;;16.40;11.45;;;;;;;4.79;68.71;100026.66;1856537;77;21141;-71
2022/03/25 06:37:53;;;;;;;17.20;11.18;;;;;;;4.82;68.43;100037.86;1856553;77;21558;-72
2022/03/25 06:40:21;;;;;;;18.50;11.38;;;;;;;4.86;68.23;100036.22;1856491;77;21549;-73
2022/03/25 06:42:49;;;;;;;15.58;10.58;;;;;;;4.90;68.13;100040.60;1856498;77;20877;-70
2022/03/25 06:45:18;;;;;;;15.90;11.05;;;;;;;4.97;67.85;100045.27;1856875;77;20914;-74
2022/03/25 06:47:52;;;;;;;18.67;12.13;;;;;;;5.02;67.52;100044.45;1856138;77;20894;-72
2022/03/25 06:50:21;;;;;;;17.73;10.10;;;;;;;5.08;67.19;100048.03;1830342;77;20961;-70
2022/03/25 06:52:49;;;;;;;14.68;10.05;;;;;;;5.13;66.71;100049.94;1830278;77;20938;-70
2022/03/25 06:55:16;;;;;;;18.77;11.08;;;;;;;5.18;66.40;100052.69;1856672;77;20985;-71
2022/03/25 06:57:43;;;;;;;16.40;11.12;;;;;;;5.23;66.13;100052.69;1856257;77;20865;-72
2022/03/25 07:00:12;;;;;;;13.15;10.03;;;;;;;5.31;66.21;100055.42;1856531;77;21120;-68
2022/03/25 07:02:44;;;;;;;17.25;9.78;;;;;;;5.38;65.71;100055.16;1856746;77;20882;-73
2022/03/25 07:05:13;;;;;;;14.53;9.48;;;;;;;5.46;65.36;100055.98;1856642;77;21462;-68
2022/03/25 07:07:42;;;;;;;12.13;8.45;;;;;;;5.55;64.91;100063.09;1856169;77;20953;-70
2022/03/25 07:10:09;;;;;;;11.73;9.05;;;;;;;5.64;64.40;100060.64;1856023;77;20893;-69
2022/03/25 07:12:39;;;;;;;15.10;9.83;;;;;;;5.71;63.53;100063.93;1852234;77;21037;-74
2022/03/25 07:15:09;;;;;;;12.35;8.98;;;;;;;5.80;63.15;100070.48;1852314;77;21498;-72
2022/03/25 07:17:38;;;;;;;13.95;9.28;;;;;;;5.88;62.66;100072.39;1853300;77;21033;-74
2022/03/25 07:20:07;;;;;;;15.30;8.85;;;;;;;5.95;61.71;100077.84;1852574;77;20970;-69
2022/03/25 07:22:34;;;;;;;13.18;9.28;;;;;;;6.00;61.43;100078.41;1852599;77;20976;-72
2022/03/25 07:25:01;;;;;;;13.03;8.65;;;;;;;6.07;60.82;100080.32;1852296;77;21214;-68
2022/03/25 07:27:29;;;;;;;14.10;7.78;;;;;;;6.14;60.52;100078.67;1852236;77;21391;-72
2022/03/25 07:29:57;;;;;;;14.43;8.75;;;;;;;6.21;59.44;100082.48;1852411;77;21470;-69
2022/03/25 07:32:24;;;;;;;11.83;8.33;;;;;;;6.27;59.04;100074.55;1851925;77;20954;-71
2022/03/25 07:34:52;;;;;;;11.55;7.47;;;;;;;6.35;58.93;100077.83;1852650;77;21561;-69
2022/03/25 07:37:19;;;;;;;13.95;7.60;;;;;;;6.41;58.30;100080.81;1852965;77;21678;-71
2022/03/25 07:39:47;;;;;;;12.85;8.93;;;;;;;6.48;58.41;100079.98;1852566;77;20907;-69
2022/03/25 07:42:16;;;;;;;14.30;9.13;;;;;;;6.58;58.11;100084.02;1852585;77;21001;-70
2022/03/25 07:44:45;;;;;;;13.90;9.20;;;;;;;6.67;57.42;100082.90;1851499;77;22043;-73
2022/03/25 07:47:14;;;;;;;14.50;9.65;;;;;;;6.75;57.14;100084.25;1853065;77;20898;-71
2022/03/25 07:49:43;;;;;;;14.10;9.65;;;;;;;6.82;56.39;100079.27;1852529;77;21131;-71
2022/03/25 07:52:16;;;;;;;13.53;9.45;;;;;;;6.88;56.25;100086.09;1852533;77;20974;-71
2022/03/25 07:54:44;;;;;;;17.98;10.80;;;;;;;6.94;56.06;100083.63;1851800;77;20922;-72
2022/03/25 07:57:11;;;;;;;16.05;11.03;;;;;;;7.01;55.93;100092.33;1852498;77;20986;-70
2022/03/25 07:59:38;;;;;;;15.03;10.78;;;;;;;7.10;55.92;100093.11;1852705;77;21444;-72
2022/03/25 08:02:05;;;;;;;16.77;11.12;;;;;;;7.20;55.26;100097.73;1852666;77;21516;-70
2022/03/25 08:04:35;;;;;;;18.42;11.93;;;;;;;7.24;55.13;100096.88;1852510;77;21044;-70
2022/03/25 08:07:03;;;;;;;17.57;11.95;;;;;;;7.33;55.21;100104.50;1852765;77;20894;-71
2022/03/25 08:09:30;;;;;;;20.62;13.30;;;;;;;7.42;55.17;100098.13;1852771;77;21466;-69
2022/03/25 08:11:56;;;;;;;20.70;13.83;;;;;;;7.48;54.88;100101.66;1855241;77;20986;-70
2022/03/25 08:14:24;;;;;;;22.22;13.38;;;;;;;7.57;54.89;100106.53;1856789;77;21104;-72
2022/03/25 08:16:51;;;;;;;20.40;12.37;;;;;;;7.69;54.76;100100.69;1856591;77;20862;-68
2022/03/25 08:19:20;;;;;;;21.23;14.10;;;;;;;7.81;54.72;100102.52;1856685;77;21439;-72
2022/03/25 08:21:50;;;;;;;20.92;13.60;;;;;;;7.91;54.33;100106.55;1856391;77;20960;-69
2022/03/25 08:29:51;;;;;;;18.35;12.28;;;;;;;8.19;53.89;100118.36;1856562;77;20973;-66
2022/03/25 08:32:19;;;;;;;14.63;11.68;;;;;;;8.27;53.71;100113.61;1856496;77;20893;-69
2022/03/25 08:34:47;;;;;;;17.48;11.68;;;;;;;8.34;53.80;100114.63;1856641;77;20982;-70
2022/03/25 08:37:15;;;;;;;23.45;12.25;;;;;;;8.41;53.75;100118.41;1856486;77;20922;-71
2022/03/25 08:39:42;;;;;;;17.00;11.78;;;;;;;8.48;53.61;100123.02;1856527;77;21555;-71
2022/03/25 08:42:10;;;;;;;17.60;12.30;;;;;;;8.55;53.50;100121.86;1856615;77;20907;-73
2022/03/25 08:44:38;;;;;;;19.20;11.40;;;;;;;8.63;53.20;100114.38;1830568;77;20867;-71
2022/03/25 08:47:08;;;;;;;17.17;11.38;;;;;;;8.63;52.24;100118.50;1854907;77;20883;-70
2022/03/25 08:49:39;;;;;;;17.62;12.20;;;;;;;8.66;52.53;100113.80;1856509;77;21029;-73
2022/03/25 08:52:22;;;;;;;16.97;11.90;;;;;;;8.74;52.84;100120.56;1849193;77;20917;-74
2022/03/25 08:54:50;;;;;;;17.82;12.00;;;;;;;8.72;51.71;100120.03;1856595;77;20926;-69
2022/03/25 08:57:19;;;;;;;21.75;11.55;;;;;;;8.54;52.18;100116.92;1856096;77;21001;-73
2022/03/25 08:59:48;;;;;;;16.65;11.70;;;;;;;8.56;52.94;100120.23;1856660;77;20914;-72
2022/03/25 09:02:14;;;;;;;16.93;12.10;;;;;;;8.60;52.63;100119.06;1856381;76;21520;-67
2022/03/25 09:04:41;;;;;;;15.15;11.55;;;;;;;8.63;52.42;100121.25;1856529;77;21553;-72
2022/03/25 09:07:08;;;;;;;17.12;10.93;;;;;;;8.66;52.55;100125.33;1856342;77;20965;-73
2022/03/25 09:09:37;;;;;;;17.25;12.28;;;;;;;8.62;51.73;100125.09;1856583;77;20949;-74
2022/03/25 09:12:08;;;;;;;16.45;11.53;;;;;;;8.65;52.62;100125.88;1854112;77;21415;-68
2022/03/25 09:14:42;;;;;;;19.57;12.25;;;;;;;8.69;52.39;100133.81;1824051;77;20859;-71
2022/03/25 09:17:10;;;;;;;16.37;11.97;;;;;;;8.55;51.33;100131.48;1852852;77;20923;-72
2022/03/25 09:19:38;;;;;;;14.63;10.53;;;;;;;8.31;51.82;100130.89;1852649;77;20945;-69
2022/03/25 09:22:09;;;;;;;15.70;10.60;;;;;;;8.27;52.63;100136.14;1852335;77;20901;-73
2022/03/25 09:24:36;;;;;;;16.05;11.38;;;;;;;8.19;52.51;100137.57;1852689;77;21541;-72
2022/03/25 09:27:06;;;;;;;14.20;10.72;;;;;;;8.11;53.25;100132.16;1852049;77;20918;-70
2022/03/25 09:29:33;;;;;;;15.13;10.20;;;;;;;8.21;54.30;100138.11;1852793;77;21289;-74
2022/03/25 09:32:01;;;;;;;14.23;9.93;;;;;;;8.46;54.33;100138.95;1852925;77;21363;-71
2022/03/25 09:37:15;;;;;;;16.62;10.45;;;;;;;8.76;53.60;100138.41;1853003;77;20960;-73
2022/03/25 09:39:44;;;;;;;17.07;10.38;;;;;;;8.80;52.75;100141.39;1852904;77;20965;-72
2022/03/25 09:42:13;;;;;;;16.75;11.10;;;;;;;8.68;52.01;100142.34;1852823;77;21832;-73
2022/03/25 09:44:43;;;;;;;14.10;10.55;;;;;;;8.55;52.63;100134.23;1852491;77;20902;-71
2022/03/25 09:47:12;;;;;;;16.55;9.25;;;;;;;8.60;53.49;100135.00;1852582;77;21434;-72
2022/03/25 09:49:39;;;;;;;15.55;10.03;;;;;;;8.84;54.17;100141.05;1852804;77;20870;-72
2022/03/25 09:52:10;;;;;;;12.85;8.85;;;;;;;9.11;53.64;100140.19;1852727;77;20922;-71
2022/03/25 09:54:37;;;;;;;13.08;9.18;;;;;;;9.32;53.04;100144.02;1852903;77;21086;-72
2022/03/25 09:57:05;;;;;;;12.35;9.13;;;;;;;9.51;52.35;100146.78;1852637;77;21597;-69
2022/03/25 09:59:33;;;;;;;12.68;10.00;;;;;;;9.69;51.75;100146.50;1852598;77;20885;-70
2022/03/25 10:02:04;;;;;;;16.30;10.08;;;;;;;9.88;50.85;100142.91;1852704;77;21459;-71
2022/03/25 10:04:45;;;;;;;16.00;10.13;;;;;;;9.97;50.52;100138.38;1853161;77;20926;-68
2022/03/25 10:07:30;;;;;;;15.08;10.00;;;;;;;10.14;50.21;100142.49;1852593;77;20922;-70
2022/03/25 10:10:13;;;;;;;13.32;8.33;;;;;;;10.07;48.23;100145.64;1852489;77;20863;-70
2022/03/25 10:12:49;;;;;;;13.98;9.38;;;;;;;9.96;48.59;100139.47;1852461;77;21443;-72
2022/03/25 10:15:25;;;;;;;12.58;9.10;;;;;;;9.71;47.02;100149.78;1852323;77;21009;-70
2022/03/25 10:18:04;;;;;;;12.75;9.38;;;;;;;9.62;48.40;100144.70;1852009;77;20976;-72
2022/03/25 10:20:40;;;;;;;15.28;9.85;;;;;;;9.76;48.70;100146.13;1852506;77;20914;-74
2022/03/25 10:23:17;;;;;;;11.35;8.00;;;;;;;9.98;48.72;100150.18;1852465;77;20957;-70
2022/03/25 10:25:55;;;;;;;13.00;8.78;;;;;;;10.03;46.03;100145.17;1852627;77;21009;-71
2022/03/25 10:28:34;;;;;;;14.50;9.25;;;;;;;9.98;46.61;100147.42;1852520;77;21119;-72
2022/03/25 10:31:13;;;;;;;12.63;9.38;;;;;;;10.06;46.79;100147.31;1852639;77;20898;-72
2022/03/25 10:33:57;;;;;;;13.08;8.65;;;;;;;9.97;45.84;100146.63;1852574;77;21419;-74
2022/03/25 10:36:25;;;;;;;11.57;8.90;;;;;;;9.84;47.35;100151.52;1852073;77;20875;-72
2022/03/25 10:39:11;;;;;;;10.65;7.97;;;;;;;9.94;47.67;100156.88;1849489;77;21458;-68
2022/03/25 10:41:42;;;;;;;11.35;8.73;;;;;;;10.11;47.43;100145.85;1852207;77;20879;-72
2022/03/25 10:44:10;;;;;;;12.63;8.45;;;;;;;10.26;46.08;100148.89;1852622;77;20977;-69
2022/03/25 10:46:46;;;;;;;13.00;9.05;;;;;;;10.16;45.11;100152.65;1822387;77;21123;-69
2022/03/25 10:49:21;;;;;;;13.15;8.55;;;;;;;10.02;45.52;100149.02;1852577;77;20961;-71
2022/03/25 10:52:00;;;;;;;12.93;8.50;;;;;;;10.07;45.26;100144.81;1852835;77;20985;-72
2022/03/25 10:54:29;;;;;;;10.70;8.08;;;;;;;10.20;44.85;100146.78;1852683;77;20879;-73
2022/03/25 10:57:00;;;;;;;11.95;8.23;;;;;;;10.07;44.70;100150.31;1852602;77;21509;-72
2022/03/25 10:59:35;;;;;;;11.97;8.03;;;;;;;9.94;44.53;100148.61;1847871;77;20950;-74
2022/03/25 11:02:05;;;;;;;13.57;9.40;;;;;;;9.88;44.32;100147.04;1853173;77;21348;-70
2022/03/25 11:04:33;;;;;;;13.50;8.73;;;;;;;9.84;44.25;100150.15;1852659;77;21025;-73
2022/03/25 11:07:06;;;;;;;11.00;7.95;;;;;;;9.93;44.57;100137.32;1853015;77;20894;-72
2022/03/25 11:09:53;;;;;;;11.75;8.55;;;;;;;10.12;45.24;100133.71;1850391;77;20962;-70
2022/03/25 11:12:20;;;;;;;11.55;8.30;;;;;;;10.29;43.40;100136.44;1852136;77;21152;-72
2022/03/25 11:14:48;;;;;;;11.43;8.18;;;;;;;10.22;44.33;100135.46;1821818;77;20979;-71
2022/03/25 11:17:15;;;;;;;11.30;7.67;;;;;;;10.35;45.53;100133.88;1852616;77;21009;-71
2022/03/25 11:19:45;;;;;;;9.20;7.30;;;;;;;10.66;45.47;100133.88;1804315;77;20913;-72
2022/03/25 11:22:17;;;;;;;12.95;8.28;;;;;;;10.88;43.32;100140.06;1848170;77;20875;-72
2022/03/25 11:24:48;;;;;;;10.20;7.60;;;;;;;10.62;41.82;100128.72;1852246;77;21014;-74
2022/03/25 11:27:32;;;;;;;10.13;8.10;;;;;;;10.44;43.45;100133.41;1852894;77;20870;-72
2022/03/25 11:30:09;;;;;;;10.72;7.55;;;;;;;10.53;43.19;100134.94;1821424;77;21002;-70
2022/03/25 11:33:03;;;;;;;10.60;7.72;;;;;;;10.78;44.04;100136.13;1852423;77;21009;-71
2022/03/25 11:35:41;;;;;;;13.38;8.15;;;;;;;10.94;42.26;100129.73;1848334;77;20882;-72
2022/03/25 11:38:18;;;;;;;11.93;7.33;;;;;;;10.85;41.04;100141.23;1851157;77;21219;-70
2022/03/25 11:40:50;;;;;;;13.50;7.78;;;;;;;10.77;41.77;100136.69;1852563;77;20862;-70
2022/03/25 11:43:25;;;;;;;11.25;7.55;;;;;;;10.75;41.09;100136.16;1852690;77;20909;-75
2022/03/25 11:46:06;;;;;;;11.88;7.67;;;;;;;10.69;40.86;100138.23;1852711;77;21572;-71